This is the latest recevied weather packets stored in our database for station/object IV3CGM-1. If no packets are shown the sender has not sent any weather packets the latest 1 day(s).
| Time | Temp. | Humidity | Pressure | Rain* | Wind** | Luminosity | Snow |
|---|---|---|---|---|---|---|---|
| 1777963739 | 8.89° C | 91% | - | - | 0.89 m/s, 138° | - | - |
| 1777963105 | 8.89° C | 91% | - | - | 2.24 m/s, 114° | - | - |
| 1777962492 | 9.44° C | 87% | - | - | 2.68 m/s, 96° | - | - |
| 1777961865 | 9.44° C | 79% | - | - | 1.79 m/s, 48° | - | - |
| 1777961257 | 8.89° C | 81% | - | - | 0.89 m/s, 53° | - | - |
| 1777960690 | 9.44° C | 80% | - | - | 1.34 m/s, 83° | - | - |
| 1777960092 | 10° C | 71% | - | - | 0.89 m/s, 72° | - | - |
| 1777959530 | 10° C | 71% | - | - | 0.89 m/s, 72° | - | - |
| 1777958890 | 10° C | 68% | - | - | 1.79 m/s, 72° | - | - |
| 1777958293 | 10° C | 67% | - | - | 0 m/s | - | - |
| 1777957668 | 10° C | 67% | - | - | 0.89 m/s, 72° | - | - |
| 1777957104 | 9.44° C | 69% | - | - | 0 m/s | - | - |
| 1777956515 | 9.44° C | 75% | - | - | 0.89 m/s, 336° | - | - |
| 1777955939 | 10° C | 71% | - | - | 0.89 m/s, 55° | - | - |
| 1777955375 | 10° C | 69% | - | - | 1.34 m/s, 62° | - | - |
| 1777954717 | 10° C | 65% | - | - | 1.79 m/s, 42° | - | - |
| 1777954091 | 9.44° C | 68% | - | - | 0.89 m/s, 18° | - | - |
| 1777953443 | 10° C | 69% | - | - | 1.79 m/s, 37° | - | - |
| 1777952882 | 9.44° C | 75% | - | - | 0.89 m/s, 264° | - | - |
| 1777952265 | 9.44° C | 75% | - | - | 0.89 m/s, 264° | - | - |
* Rain since midnight (hover to see other rain measurements)
** Current wind speed in m/s (hover to see current wind gust speed)